sensor_id;sensor_type;location;lat;lon;timestamp;P1;durP1;ratioP1;P2;durP2;ratioP2
4812;SDS011;2420;51.202;8.698;2023-07-13T00:01:27;3.25;;;2.55;;
4812;SDS011;2420;51.202;8.698;2023-07-13T00:03:53;6.03;;;3.05;;
4812;SDS011;2420;51.202;8.698;2023-07-13T00:06:19;5.15;;;2.60;;
4812;SDS011;2420;51.202;8.698;2023-07-13T00:08:45;3.90;;;2.70;;
4812;SDS011;2420;51.202;8.698;2023-07-13T00:11:12;3.80;;;2.78;;
4812;SDS011;2420;51.202;8.698;2023-07-13T00:13:39;5.93;;;2.65;;
4812;SDS011;2420;51.202;8.698;2023-07-13T00:16:06;5.05;;;2.60;;
4812;SDS011;2420;51.202;8.698;2023-07-13T00:18:32;5.35;;;2.80;;
4812;SDS011;2420;51.202;8.698;2023-07-13T00:20:57;5.53;;;2.72;;
4812;SDS011;2420;51.202;8.698;2023-07-13T00:23:36;4.47;;;2.80;;
4812;SDS011;2420;51.202;8.698;2023-07-13T00:26:05;7.18;;;3.13;;
4812;SDS011;2420;51.202;8.698;2023-07-13T00:28:31;4.80;;;2.80;;
4812;SDS011;2420;51.202;8.698;2023-07-13T00:30:58;3.78;;;2.97;;
4812;SDS011;2420;51.202;8.698;2023-07-13T00:33:23;4.57;;;3.25;;
4812;SDS011;2420;51.202;8.698;2023-07-13T00:35:49;4.25;;;2.92;;
4812;SDS011;2420;51.202;8.698;2023-07-13T00:38:15;4.95;;;3.17;;
4812;SDS011;2420;51.202;8.698;2023-07-13T00:40:41;4.25;;;3.00;;
4812;SDS011;2420;51.202;8.698;2023-07-13T00:43:13;7.68;;;3.15;;
4812;SDS011;2420;51.202;8.698;2023-07-13T00:48:08;4.10;;;2.80;;
4812;SDS011;2420;51.202;8.698;2023-07-13T00:50:35;3.90;;;3.00;;
4812;SDS011;2420;51.202;8.698;2023-07-13T00:53:01;3.83;;;2.80;;
4812;SDS011;2420;51.202;8.698;2023-07-13T00:55:28;4.03;;;3.30;;
4812;SDS011;2420;51.202;8.698;2023-07-13T00:57:54;4.93;;;3.15;;
4812;SDS011;2420;51.202;8.698;2023-07-13T01:00:20;5.22;;;3.20;;
4812;SDS011;2420;51.202;8.698;2023-07-13T01:02:50;5.72;;;3.58;;
4812;SDS011;2420;51.202;8.698;2023-07-13T01:05:16;5.35;;;3.40;;
4812;SDS011;2420;51.202;8.698;2023-07-13T01:07:44;4.53;;;3.58;;
4812;SDS011;2420;51.202;8.698;2023-07-13T01:10:11;4.78;;;3.30;;
4812;SDS011;2420;51.202;8.698;2023-07-13T01:12:38;3.65;;;3.28;;
4812;SDS011;2420;51.202;8.698;2023-07-13T01:15:04;4.82;;;3.20;;
4812;SDS011;2420;51.202;8.698;2023-07-13T01:17:30;4.03;;;3.17;;
4812;SDS011;2420;51.202;8.698;2023-07-13T01:19:58;4.53;;;2.85;;
4812;SDS011;2420;51.202;8.698;2023-07-13T01:22:23;3.33;;;2.85;;
4812;SDS011;2420;51.202;8.698;2023-07-13T01:24:51;3.88;;;2.80;;
4812;SDS011;2420;51.202;8.698;2023-07-13T01:27:20;2.90;;;2.60;;
4812;SDS011;2420;51.202;8.698;2023-07-13T01:29:48;3.60;;;2.75;;
4812;SDS011;2420;51.202;8.698;2023-07-13T01:32:22;3.78;;;2.63;;
4812;SDS011;2420;51.202;8.698;2023-07-13T01:34:52;7.25;;;3.00;;
4812;SDS011;2420;51.202;8.698;2023-07-13T01:37:22;5.28;;;2.83;;
4812;SDS011;2420;51.202;8.698;2023-07-13T01:39:49;5.35;;;2.83;;
4812;SDS011;2420;51.202;8.698;2023-07-13T01:42:14;4.63;;;2.60;;
4812;SDS011;2420;51.202;8.698;2023-07-13T01:44:40;3.45;;;2.83;;
4812;SDS011;2420;51.202;8.698;2023-07-13T01:47:05;5.32;;;2.88;;
4812;SDS011;2420;51.202;8.698;2023-07-13T01:49:31;3.60;;;2.63;;
4812;SDS011;2420;51.202;8.698;2023-07-13T01:51:57;4.18;;;2.50;;
4812;SDS011;2420;51.202;8.698;2023-07-13T01:54:22;5.55;;;3.05;;
4812;SDS011;2420;51.202;8.698;2023-07-13T01:56:48;4.20;;;2.70;;
4812;SDS011;2420;51.202;8.698;2023-07-13T01:59:14;4.63;;;2.50;;
4812;SDS011;2420;51.202;8.698;2023-07-13T02:01:39;3.72;;;2.60;;
4812;SDS011;2420;51.202;8.698;2023-07-13T02:04:05;2.47;;;2.17;;
4812;SDS011;2420;51.202;8.698;2023-07-13T02:06:30;3.33;;;2.45;;
4812;SDS011;2420;51.202;8.698;2023-07-13T02:08:57;4.57;;;2.42;;
4812;SDS011;2420;51.202;8.698;2023-07-13T02:11:23;4.68;;;2.80;;
4812;SDS011;2420;51.202;8.698;2023-07-13T02:13:49;4.90;;;2.28;;
4812;SDS011;2420;51.202;8.698;2023-07-13T02:16:15;4.47;;;2.25;;
4812;SDS011;2420;51.202;8.698;2023-07-13T02:18:41;3.70;;;2.50;;
4812;SDS011;2420;51.202;8.698;2023-07-13T02:21:06;2.92;;;2.40;;
4812;SDS011;2420;51.202;8.698;2023-07-13T02:23:32;3.45;;;2.33;;
4812;SDS011;2420;51.202;8.698;2023-07-13T02:25:58;3.95;;;2.53;;
4812;SDS011;2420;51.202;8.698;2023-07-13T02:28:24;2.70;;;2.17;;
4812;SDS011;2420;51.202;8.698;2023-07-13T02:30:49;6.18;;;2.40;;
4812;SDS011;2420;51.202;8.698;2023-07-13T02:33:15;3.10;;;2.20;;
4812;SDS011;2420;51.202;8.698;2023-07-13T02:35:41;5.75;;;2.20;;
4812;SDS011;2420;51.202;8.698;2023-07-13T02:38:07;4.40;;;2.38;;
4812;SDS011;2420;51.202;8.698;2023-07-13T02:40:33;3.55;;;2.38;;
4812;SDS011;2420;51.202;8.698;2023-07-13T02:43:00;3.60;;;2.42;;
4812;SDS011;2420;51.202;8.698;2023-07-13T02:45:26;3.00;;;2.05;;
4812;SDS011;2420;51.202;8.698;2023-07-13T02:47:52;2.55;;;2.05;;
4812;SDS011;2420;51.202;8.698;2023-07-13T02:50:17;5.68;;;2.50;;
4812;SDS011;2420;51.202;8.698;2023-07-13T02:52:43;4.25;;;2.47;;
4812;SDS011;2420;51.202;8.698;2023-07-13T02:55:08;3.88;;;2.20;;
4812;SDS011;2420;51.202;8.698;2023-07-13T02:57:34;2.38;;;2.00;;
4812;SDS011;2420;51.202;8.698;2023-07-13T03:00:00;3.92;;;2.15;;
4812;SDS011;2420;51.202;8.698;2023-07-13T03:02:30;3.25;;;2.00;;
4812;SDS011;2420;51.202;8.698;2023-07-13T03:04:57;3.80;;;2.10;;
4812;SDS011;2420;51.202;8.698;2023-07-13T03:07:22;3.80;;;2.15;;
4812;SDS011;2420;51.202;8.698;2023-07-13T03:09:48;5.47;;;2.33;;
4812;SDS011;2420;51.202;8.698;2023-07-13T03:12:14;3.80;;;2.00;;
4812;SDS011;2420;51.202;8.698;2023-07-13T03:14:39;4.75;;;2.10;;
4812;SDS011;2420;51.202;8.698;2023-07-13T03:17:05;6.90;;;2.40;;
4812;SDS011;2420;51.202;8.698;2023-07-13T03:19:30;5.40;;;2.00;;
4812;SDS011;2420;51.202;8.698;2023-07-13T03:21:56;4.82;;;2.10;;
4812;SDS011;2420;51.202;8.698;2023-07-13T03:24:21;4.50;;;2.10;;
4812;SDS011;2420;51.202;8.698;2023-07-13T03:26:50;2.83;;;2.05;;
4812;SDS011;2420;51.202;8.698;2023-07-13T03:29:16;3.60;;;1.98;;
4812;SDS011;2420;51.202;8.698;2023-07-13T03:31:41;3.58;;;1.75;;
4812;SDS011;2420;51.202;8.698;2023-07-13T03:34:07;6.65;;;2.35;;
4812;SDS011;2420;51.202;8.698;2023-07-13T03:36:32;2.95;;;1.90;;
4812;SDS011;2420;51.202;8.698;2023-07-13T03:38:59;3.42;;;1.80;;
4812;SDS011;2420;51.202;8.698;2023-07-13T03:41:26;6.03;;;2.10;;
4812;SDS011;2420;51.202;8.698;2023-07-13T03:43:52;2.20;;;1.73;;
4812;SDS011;2420;51.202;8.698;2023-07-13T03:46:18;5.15;;;1.90;;
4812;SDS011;2420;51.202;8.698;2023-07-13T03:48:44;3.03;;;1.88;;
4812;SDS011;2420;51.202;8.698;2023-07-13T03:51:11;4.18;;;2.20;;
4812;SDS011;2420;51.202;8.698;2023-07-13T03:53:39;3.92;;;2.10;;
4812;SDS011;2420;51.202;8.698;2023-07-13T03:56:06;3.35;;;2.15;;
4812;SDS011;2420;51.202;8.698;2023-07-13T03:58:33;2.97;;;1.88;;
4812;SDS011;2420;51.202;8.698;2023-07-13T04:01:00;4.82;;;2.20;;
4812;SDS011;2420;51.202;8.698;2023-07-13T04:03:27;3.92;;;2.00;;
4812;SDS011;2420;51.202;8.698;2023-07-13T04:05:56;4.75;;;2.15;;
4812;SDS011;2420;51.202;8.698;2023-07-13T04:08:24;2.70;;;1.90;;
4812;SDS011;2420;51.202;8.698;2023-07-13T04:10:51;3.08;;;2.08;;
4812;SDS011;2420;51.202;8.698;2023-07-13T04:13:16;5.38;;;2.05;;
4812;SDS011;2420;51.202;8.698;2023-07-13T04:15:41;3.28;;;1.92;;
4812;SDS011;2420;51.202;8.698;2023-07-13T04:18:07;4.25;;;2.30;;
4812;SDS011;2420;51.202;8.698;2023-07-13T04:20:33;3.83;;;1.98;;
4812;SDS011;2420;51.202;8.698;2023-07-13T04:22:59;3.35;;;2.08;;
4812;SDS011;2420;51.202;8.698;2023-07-13T04:25:25;4.90;;;2.05;;
4812;SDS011;2420;51.202;8.698;2023-07-13T04:27:52;2.55;;;2.05;;
4812;SDS011;2420;51.202;8.698;2023-07-13T04:30:18;3.55;;;2.05;;
4812;SDS011;2420;51.202;8.698;2023-07-13T04:32:44;3.35;;;1.90;;
4812;SDS011;2420;51.202;8.698;2023-07-13T04:35:09;3.22;;;2.10;;
4812;SDS011;2420;51.202;8.698;2023-07-13T04:37:35;3.85;;;1.88;;
4812;SDS011;2420;51.202;8.698;2023-07-13T04:40:01;6.60;;;1.85;;
4812;SDS011;2420;51.202;8.698;2023-07-13T04:42:27;3.03;;;1.75;;
4812;SDS011;2420;51.202;8.698;2023-07-13T04:44:52;3.75;;;1.80;;
4812;SDS011;2420;51.202;8.698;2023-07-13T04:47:18;3.40;;;1.58;;
4812;SDS011;2420;51.202;8.698;2023-07-13T04:49:44;5.40;;;1.90;;
4812;SDS011;2420;51.202;8.698;2023-07-13T04:52:10;2.88;;;1.90;;
4812;SDS011;2420;51.202;8.698;2023-07-13T04:54:35;3.03;;;1.52;;
4812;SDS011;2420;51.202;8.698;2023-07-13T04:57:02;2.78;;;1.60;;
4812;SDS011;2420;51.202;8.698;2023-07-13T04:59:31;5.82;;;1.98;;
4812;SDS011;2420;51.202;8.698;2023-07-13T05:01:57;2.80;;;1.52;;
4812;SDS011;2420;51.202;8.698;2023-07-13T05:04:22;4.75;;;1.58;;
4812;SDS011;2420;51.202;8.698;2023-07-13T05:06:48;5.50;;;1.50;;
4812;SDS011;2420;51.202;8.698;2023-07-13T05:09:13;4.97;;;1.70;;
4812;SDS011;2420;51.202;8.698;2023-07-13T05:11:39;2.63;;;1.80;;
4812;SDS011;2420;51.202;8.698;2023-07-13T05:14:04;3.72;;;1.60;;
4812;SDS011;2420;51.202;8.698;2023-07-13T05:16:30;2.28;;;1.50;;
4812;SDS011;2420;51.202;8.698;2023-07-13T05:18:57;6.25;;;1.70;;
4812;SDS011;2420;51.202;8.698;2023-07-13T05:21:23;2.15;;;1.50;;
4812;SDS011;2420;51.202;8.698;2023-07-13T05:23:49;3.80;;;1.70;;
4812;SDS011;2420;51.202;8.698;2023-07-13T05:26:15;3.78;;;1.55;;
4812;SDS011;2420;51.202;8.698;2023-07-13T05:28:40;3.33;;;1.48;;
4812;SDS011;2420;51.202;8.698;2023-07-13T05:31:07;2.35;;;1.50;;
4812;SDS011;2420;51.202;8.698;2023-07-13T05:33:34;5.18;;;1.67;;
4812;SDS011;2420;51.202;8.698;2023-07-13T05:35:59;2.70;;;1.30;;
4812;SDS011;2420;51.202;8.698;2023-07-13T05:38:25;3.08;;;1.58;;
4812;SDS011;2420;51.202;8.698;2023-07-13T05:40:52;3.08;;;1.60;;
4812;SDS011;2420;51.202;8.698;2023-07-13T05:43:20;4.20;;;1.48;;
4812;SDS011;2420;51.202;8.698;2023-07-13T05:45:45;2.08;;;1.20;;
4812;SDS011;2420;51.202;8.698;2023-07-13T05:48:11;3.42;;;1.30;;
4812;SDS011;2420;51.202;8.698;2023-07-13T05:50:36;2.15;;;1.60;;
4812;SDS011;2420;51.202;8.698;2023-07-13T05:53:02;3.78;;;1.25;;
4812;SDS011;2420;51.202;8.698;2023-07-13T05:55:28;4.35;;;1.48;;
4812;SDS011;2420;51.202;8.698;2023-07-13T05:57:53;3.65;;;1.67;;
4812;SDS011;2420;51.202;8.698;2023-07-13T06:00:19;4.68;;;1.60;;
4812;SDS011;2420;51.202;8.698;2023-07-13T06:02:45;3.10;;;1.50;;
4812;SDS011;2420;51.202;8.698;2023-07-13T06:05:10;3.33;;;1.30;;
4812;SDS011;2420;51.202;8.698;2023-07-13T06:07:36;2.72;;;1.27;;
4812;SDS011;2420;51.202;8.698;2023-07-13T06:10:02;2.97;;;1.50;;
4812;SDS011;2420;51.202;8.698;2023-07-13T06:12:28;6.00;;;1.65;;
4812;SDS011;2420;51.202;8.698;2023-07-13T06:14:53;4.47;;;1.45;;
4812;SDS011;2420;51.202;8.698;2023-07-13T06:17:19;3.25;;;1.60;;
4812;SDS011;2420;51.202;8.698;2023-07-13T06:19:45;2.72;;;1.55;;
4812;SDS011;2420;51.202;8.698;2023-07-13T06:22:10;2.38;;;1.50;;
4812;SDS011;2420;51.202;8.698;2023-07-13T06:24:38;1.70;;;1.35;;
4812;SDS011;2420;51.202;8.698;2023-07-13T06:27:04;3.65;;;1.45;;
4812;SDS011;2420;51.202;8.698;2023-07-13T06:29:30;3.60;;;1.60;;
4812;SDS011;2420;51.202;8.698;2023-07-13T06:31:56;2.83;;;1.50;;
4812;SDS011;2420;51.202;8.698;2023-07-13T06:34:22;2.08;;;1.38;;
4812;SDS011;2420;51.202;8.698;2023-07-13T06:36:47;3.72;;;2.38;;
4812;SDS011;2420;51.202;8.698;2023-07-13T06:39:13;2.80;;;1.50;;
4812;SDS011;2420;51.202;8.698;2023-07-13T06:41:39;2.00;;;1.30;;
4812;SDS011;2420;51.202;8.698;2023-07-13T06:44:04;2.92;;;1.58;;
4812;SDS011;2420;51.202;8.698;2023-07-13T06:46:31;2.90;;;1.33;;
4812;SDS011;2420;51.202;8.698;2023-07-13T06:48:57;4.05;;;1.60;;
4812;SDS011;2420;51.202;8.698;2023-07-13T06:51:22;1.88;;;1.20;;
4812;SDS011;2420;51.202;8.698;2023-07-13T06:53:48;3.38;;;1.40;;
4812;SDS011;2420;51.202;8.698;2023-07-13T06:56:14;2.50;;;1.40;;
4812;SDS011;2420;51.202;8.698;2023-07-13T06:58:40;3.33;;;1.50;;
4812;SDS011;2420;51.202;8.698;2023-07-13T07:01:06;2.85;;;1.20;;
4812;SDS011;2420;51.202;8.698;2023-07-13T07:03:31;1.95;;;1.30;;
4812;SDS011;2420;51.202;8.698;2023-07-13T07:06:15;3.17;;;1.50;;
4812;SDS011;2420;51.202;8.698;2023-07-13T07:08:42;4.05;;;1.20;;
4812;SDS011;2420;51.202;8.698;2023-07-13T07:11:09;2.35;;;1.30;;
4812;SDS011;2420;51.202;8.698;2023-07-13T07:13:39;3.75;;;1.50;;
4812;SDS011;2420;51.202;8.698;2023-07-13T07:16:05;1.42;;;1.23;;
4812;SDS011;2420;51.202;8.698;2023-07-13T07:18:31;2.28;;;1.20;;
4812;SDS011;2420;51.202;8.698;2023-07-13T07:20:57;2.75;;;1.10;;
4812;SDS011;2420;51.202;8.698;2023-07-13T07:23:22;2.42;;;1.40;;
4812;SDS011;2420;51.202;8.698;2023-07-13T07:25:48;1.52;;;1.30;;
4812;SDS011;2420;51.202;8.698;2023-07-13T07:28:15;2.53;;;1.35;;
4812;SDS011;2420;51.202;8.698;2023-07-13T07:30:43;3.22;;;1.42;;
4812;SDS011;2420;51.202;8.698;2023-07-13T07:33:09;2.80;;;1.30;;
4812;SDS011;2420;51.202;8.698;2023-07-13T07:35:34;2.95;;;1.20;;
4812;SDS011;2420;51.202;8.698;2023-07-13T07:38:00;5.05;;;1.35;;
4812;SDS011;2420;51.202;8.698;2023-07-13T07:40:25;1.73;;;1.20;;
4812;SDS011;2420;51.202;8.698;2023-07-13T07:42:51;3.63;;;1.30;;
4812;SDS011;2420;51.202;8.698;2023-07-13T07:45:17;2.17;;;1.30;;
4812;SDS011;2420;51.202;8.698;2023-07-13T07:47:43;2.17;;;1.30;;
4812;SDS011;2420;51.202;8.698;2023-07-13T07:50:09;1.95;;;1.30;;
4812;SDS011;2420;51.202;8.698;2023-07-13T07:52:35;1.83;;;1.33;;
4812;SDS011;2420;51.202;8.698;2023-07-13T07:55:00;4.13;;;1.60;;
4812;SDS011;2420;51.202;8.698;2023-07-13T07:57:26;3.15;;;1.25;;
4812;SDS011;2420;51.202;8.698;2023-07-13T07:59:51;1.70;;;1.40;;
4812;SDS011;2420;51.202;8.698;2023-07-13T08:02:17;3.83;;;1.20;;
4812;SDS011;2420;51.202;8.698;2023-07-13T08:04:42;4.85;;;1.27;;
4812;SDS011;2420;51.202;8.698;2023-07-13T08:07:08;3.92;;;1.20;;
4812;SDS011;2420;51.202;8.698;2023-07-13T08:09:34;3.03;;;1.35;;
4812;SDS011;2420;51.202;8.698;2023-07-13T08:11:59;3.33;;;1.45;;
4812;SDS011;2420;51.202;8.698;2023-07-13T08:14:25;2.95;;;1.30;;
4812;SDS011;2420;51.202;8.698;2023-07-13T08:16:51;2.60;;;1.70;;
4812;SDS011;2420;51.202;8.698;2023-07-13T08:19:16;2.83;;;1.33;;
4812;SDS011;2420;51.202;8.698;2023-07-13T08:21:42;3.88;;;1.58;;
4812;SDS011;2420;51.202;8.698;2023-07-13T08:24:08;2.95;;;1.25;;
4812;SDS011;2420;51.202;8.698;2023-07-13T08:26:34;4.05;;;1.20;;
4812;SDS011;2420;51.202;8.698;2023-07-13T08:29:00;1.98;;;1.50;;
4812;SDS011;2420;51.202;8.698;2023-07-13T08:31:25;2.05;;;1.40;;
4812;SDS011;2420;51.202;8.698;2023-07-13T08:33:51;3.03;;;1.35;;
4812;SDS011;2420;51.202;8.698;2023-07-13T08:36:17;3.45;;;1.60;;
4812;SDS011;2420;51.202;8.698;2023-07-13T08:38:43;4.45;;;1.90;;
4812;SDS011;2420;51.202;8.698;2023-07-13T08:41:10;2.45;;;1.30;;
4812;SDS011;2420;51.202;8.698;2023-07-13T08:43:41;3.60;;;1.40;;
4812;SDS011;2420;51.202;8.698;2023-07-13T08:46:14;2.70;;;1.30;;
4812;SDS011;2420;51.202;8.698;2023-07-13T08:48:42;2.85;;;1.40;;
4812;SDS011;2420;51.202;8.698;2023-07-13T08:51:26;2.20;;;1.20;;
4812;SDS011;2420;51.202;8.698;2023-07-13T08:56:45;1.58;;;1.20;;
4812;SDS011;2420;51.202;8.698;2023-07-13T08:59:13;3.50;;;1.40;;
4812;SDS011;2420;51.202;8.698;2023-07-13T09:01:59;3.75;;;1.35;;
4812;SDS011;2420;51.202;8.698;2023-07-13T09:04:54;1.65;;;1.23;;
4812;SDS011;2420;51.202;8.698;2023-07-13T09:07:44;2.35;;;1.45;;
4812;SDS011;2420;51.202;8.698;2023-07-13T09:10:27;2.25;;;1.40;;
4812;SDS011;2420;51.202;8.698;2023-07-13T09:16:08;1.90;;;1.35;;
4812;SDS011;2420;51.202;8.698;2023-07-13T09:18:43;2.40;;;1.20;;
4812;SDS011;2420;51.202;8.698;2023-07-13T09:21:14;1.85;;;1.27;;
4812;SDS011;2420;51.202;8.698;2023-07-13T09:23:43;3.80;;;1.40;;
4812;SDS011;2420;51.202;8.698;2023-07-13T09:26:13;2.08;;;1.27;;
4812;SDS011;2420;51.202;8.698;2023-07-13T09:28:43;3.58;;;1.25;;
4812;SDS011;2420;51.202;8.698;2023-07-13T09:31:13;2.85;;;1.38;;
4812;SDS011;2420;51.202;8.698;2023-07-13T09:33:49;2.10;;;1.20;;
4812;SDS011;2420;51.202;8.698;2023-07-13T09:36:19;1.67;;;1.20;;
4812;SDS011;2420;51.202;8.698;2023-07-13T09:38:45;3.10;;;1.48;;
4812;SDS011;2420;51.202;8.698;2023-07-13T09:41:20;2.80;;;1.40;;
4812;SDS011;2420;51.202;8.698;2023-07-13T09:44:02;3.15;;;1.10;;
4812;SDS011;2420;51.202;8.698;2023-07-13T09:46:37;2.17;;;1.30;;
4812;SDS011;2420;51.202;8.698;2023-07-13T09:49:04;1.58;;;1.27;;
4812;SDS011;2420;51.202;8.698;2023-07-13T09:51:30;1.52;;;1.08;;
4812;SDS011;2420;51.202;8.698;2023-07-13T09:53:55;2.60;;;1.20;;
4812;SDS011;2420;51.202;8.698;2023-07-13T09:56:23;2.85;;;1.10;;
4812;SDS011;2420;51.202;8.698;2023-07-13T09:58:51;1.73;;;1.20;;
4812;SDS011;2420;51.202;8.698;2023-07-13T10:01:18;2.20;;;1.17;;
4812;SDS011;2420;51.202;8.698;2023-07-13T10:03:58;5.00;;;1.40;;
4812;SDS011;2420;51.202;8.698;2023-07-13T10:06:24;2.10;;;1.10;;
4812;SDS011;2420;51.202;8.698;2023-07-13T10:08:51;1.67;;;1.15;;
4812;SDS011;2420;51.202;8.698;2023-07-13T10:11:19;2.05;;;0.93;;
4812;SDS011;2420;51.202;8.698;2023-07-13T10:13:50;1.73;;;1.02;;
4812;SDS011;2420;51.202;8.698;2023-07-13T10:16:20;1.25;;;1.02;;
4812;SDS011;2420;51.202;8.698;2023-07-13T10:18:51;1.52;;;1.13;;
4812;SDS011;2420;51.202;8.698;2023-07-13T10:21:22;1.50;;;1.02;;
4812;SDS011;2420;51.202;8.698;2023-07-13T10:23:54;5.40;;;1.17;;
4812;SDS011;2420;51.202;8.698;2023-07-13T10:26:27;1.40;;;1.10;;
4812;SDS011;2420;51.202;8.698;2023-07-13T10:28:57;2.15;;;1.10;;
4812;SDS011;2420;51.202;8.698;2023-07-13T10:31:29;2.38;;;1.15;;
4812;SDS011;2420;51.202;8.698;2023-07-13T10:33:56;2.53;;;1.10;;
4812;SDS011;2420;51.202;8.698;2023-07-13T10:38:57;1.85;;;1.30;;
4812;SDS011;2420;51.202;8.698;2023-07-13T10:41:26;1.90;;;1.23;;
4812;SDS011;2420;51.202;8.698;2023-07-13T10:43:55;1.45;;;1.20;;
4812;SDS011;2420;51.202;8.698;2023-07-13T10:46:23;2.97;;;1.20;;
4812;SDS011;2420;51.202;8.698;2023-07-13T10:49:02;1.75;;;1.30;;
4812;SDS011;2420;51.202;8.698;2023-07-13T10:51:31;2.45;;;1.40;;
4812;SDS011;2420;51.202;8.698;2023-07-13T10:54:17;1.77;;;1.10;;
4812;SDS011;2420;51.202;8.698;2023-07-13T10:56:44;1.27;;;1.00;;
4812;SDS011;2420;51.202;8.698;2023-07-13T10:59:12;1.45;;;1.15;;
4812;SDS011;2420;51.202;8.698;2023-07-13T11:01:52;2.03;;;1.20;;
4812;SDS011;2420;51.202;8.698;2023-07-13T11:04:24;2.08;;;1.30;;
4812;SDS011;2420;51.202;8.698;2023-07-13T11:06:53;2.40;;;1.23;;
4812;SDS011;2420;51.202;8.698;2023-07-13T11:09:33;2.00;;;1.77;;
4812;SDS011;2420;51.202;8.698;2023-07-13T11:12:02;1.40;;;1.30;;
4812;SDS011;2420;51.202;8.698;2023-07-13T11:14:37;3.08;;;1.55;;
4812;SDS011;2420;51.202;8.698;2023-07-13T11:20:38;2.10;;;1.10;;
4812;SDS011;2420;51.202;8.698;2023-07-13T11:28:03;2.38;;;1.58;;
4812;SDS011;2420;51.202;8.698;2023-07-13T11:35:38;2.65;;;1.60;;
4812;SDS011;2420;51.202;8.698;2023-07-13T11:38:15;2.55;;;1.50;;
4812;SDS011;2420;51.202;8.698;2023-07-13T11:40:53;3.00;;;1.70;;
4812;SDS011;2420;51.202;8.698;2023-07-13T11:43:20;2.25;;;1.50;;
4812;SDS011;2420;51.202;8.698;2023-07-13T11:45:48;2.95;;;1.65;;
4812;SDS011;2420;51.202;8.698;2023-07-13T11:48:18;2.38;;;1.50;;
4812;SDS011;2420;51.202;8.698;2023-07-13T11:51:00;2.63;;;1.50;;
4812;SDS011;2420;51.202;8.698;2023-07-13T11:53:30;1.77;;;1.60;;
4812;SDS011;2420;51.202;8.698;2023-07-13T11:56:10;1.50;;;1.30;;
4812;SDS011;2420;51.202;8.698;2023-07-13T11:58:37;2.22;;;1.50;;
4812;SDS011;2420;51.202;8.698;2023-07-13T12:01:03;2.38;;;1.60;;
4812;SDS011;2420;51.202;8.698;2023-07-13T12:03:30;3.50;;;1.77;;
4812;SDS011;2420;51.202;8.698;2023-07-13T12:05:59;3.05;;;1.60;;
4812;SDS011;2420;51.202;8.698;2023-07-13T12:08:28;2.70;;;1.52;;
4812;SDS011;2420;51.202;8.698;2023-07-13T12:10:58;2.30;;;1.40;;
4812;SDS011;2420;51.202;8.698;2023-07-13T12:13:34;1.52;;;1.38;;
4812;SDS011;2420;51.202;8.698;2023-07-13T12:16:01;1.63;;;1.30;;
4812;SDS011;2420;51.202;8.698;2023-07-13T12:18:30;1.83;;;1.25;;
4812;SDS011;2420;51.202;8.698;2023-07-13T12:20:58;4.18;;;1.63;;
4812;SDS011;2420;51.202;8.698;2023-07-13T12:23:32;2.20;;;1.50;;
4812;SDS011;2420;51.202;8.698;2023-07-13T12:26:00;2.47;;;1.50;;
4812;SDS011;2420;51.202;8.698;2023-07-13T12:28:35;2.75;;;1.50;;
4812;SDS011;2420;51.202;8.698;2023-07-13T12:31:06;2.17;;;1.30;;
4812;SDS011;2420;51.202;8.698;2023-07-13T12:33:48;1.77;;;1.38;;
4812;SDS011;2420;51.202;8.698;2023-07-13T12:36:20;1.50;;;1.23;;
4812;SDS011;2420;51.202;8.698;2023-07-13T12:38:46;3.30;;;1.38;;
4812;SDS011;2420;51.202;8.698;2023-07-13T12:41:12;1.90;;;1.10;;
4812;SDS011;2420;51.202;8.698;2023-07-13T12:43:39;2.65;;;1.50;;
4812;SDS011;2420;51.202;8.698;2023-07-13T12:46:14;3.28;;;1.55;;
4812;SDS011;2420;51.202;8.698;2023-07-13T12:48:43;1.83;;;1.10;;
4812;SDS011;2420;51.202;8.698;2023-07-13T12:51:13;1.67;;;1.42;;
4812;SDS011;2420;51.202;8.698;2023-07-13T12:53:43;2.00;;;1.23;;
4812;SDS011;2420;51.202;8.698;2023-07-13T12:56:19;2.05;;;1.45;;
4812;SDS011;2420;51.202;8.698;2023-07-13T12:58:48;1.60;;;1.20;;
4812;SDS011;2420;51.202;8.698;2023-07-13T13:01:19;3.22;;;1.40;;
4812;SDS011;2420;51.202;8.698;2023-07-13T13:03:47;2.20;;;1.20;;
4812;SDS011;2420;51.202;8.698;2023-07-13T13:08:44;2.45;;;1.35;;
4812;SDS011;2420;51.202;8.698;2023-07-13T13:11:22;3.17;;;1.23;;
4812;SDS011;2420;51.202;8.698;2023-07-13T13:13:49;2.38;;;1.40;;
4812;SDS011;2420;51.202;8.698;2023-07-13T13:19:22;1.85;;;1.40;;
4812;SDS011;2420;51.202;8.698;2023-07-13T13:21:50;3.40;;;1.50;;
4812;SDS011;2420;51.202;8.698;2023-07-13T13:24:19;3.13;;;1.58;;
4812;SDS011;2420;51.202;8.698;2023-07-13T13:26:46;2.55;;;1.40;;
4812;SDS011;2420;51.202;8.698;2023-07-13T13:29:16;2.42;;;1.45;;
4812;SDS011;2420;51.202;8.698;2023-07-13T13:31:44;2.92;;;1.60;;
4812;SDS011;2420;51.202;8.698;2023-07-13T13:34:11;3.25;;;1.60;;
4812;SDS011;2420;51.202;8.698;2023-07-13T13:36:39;2.50;;;1.42;;
4812;SDS011;2420;51.202;8.698;2023-07-13T13:39:13;3.67;;;1.40;;
4812;SDS011;2420;51.202;8.698;2023-07-13T13:41:57;2.72;;;1.50;;
4812;SDS011;2420;51.202;8.698;2023-07-13T13:44:23;3.65;;;1.30;;
4812;SDS011;2420;51.202;8.698;2023-07-13T13:46:50;1.80;;;1.50;;
4812;SDS011;2420;51.202;8.698;2023-07-13T13:49:19;2.17;;;1.35;;
4812;SDS011;2420;51.202;8.698;2023-07-13T13:51:47;1.92;;;1.30;;
4812;SDS011;2420;51.202;8.698;2023-07-13T13:54:13;2.95;;;1.50;;
4812;SDS011;2420;51.202;8.698;2023-07-13T13:56:45;1.60;;;1.30;;
4812;SDS011;2420;51.202;8.698;2023-07-13T13:59:12;2.10;;;1.40;;
4812;SDS011;2420;51.202;8.698;2023-07-13T14:01:39;3.10;;;1.50;;
4812;SDS011;2420;51.202;8.698;2023-07-13T14:04:08;4.95;;;1.60;;
4812;SDS011;2420;51.202;8.698;2023-07-13T14:06:46;2.53;;;1.48;;
4812;SDS011;2420;51.202;8.698;2023-07-13T14:09:14;2.10;;;1.30;;
4812;SDS011;2420;51.202;8.698;2023-07-13T14:11:41;2.70;;;1.60;;
4812;SDS011;2420;51.202;8.698;2023-07-13T14:14:09;5.50;;;1.50;;
4812;SDS011;2420;51.202;8.698;2023-07-13T14:16:41;1.90;;;1.48;;
4812;SDS011;2420;51.202;8.698;2023-07-13T14:19:08;2.22;;;1.40;;
4812;SDS011;2420;51.202;8.698;2023-07-13T14:21:36;2.45;;;1.70;;
4812;SDS011;2420;51.202;8.698;2023-07-13T14:24:02;2.92;;;1.48;;
4812;SDS011;2420;51.202;8.698;2023-07-13T14:26:28;3.13;;;1.42;;
4812;SDS011;2420;51.202;8.698;2023-07-13T14:28:57;1.85;;;1.50;;
4812;SDS011;2420;51.202;8.698;2023-07-13T14:31:23;2.88;;;1.33;;
4812;SDS011;2420;51.202;8.698;2023-07-13T14:33:51;4.13;;;1.50;;
4812;SDS011;2420;51.202;8.698;2023-07-13T14:39:24;2.42;;;1.60;;
4812;SDS011;2420;51.202;8.698;2023-07-13T14:41:51;1.48;;;1.20;;
4812;SDS011;2420;51.202;8.698;2023-07-13T14:44:20;3.58;;;1.58;;
4812;SDS011;2420;51.202;8.698;2023-07-13T14:46:48;2.42;;;1.40;;
4812;SDS011;2420;51.202;8.698;2023-07-13T14:51:55;3.08;;;1.40;;
4812;SDS011;2420;51.202;8.698;2023-07-13T14:54:23;3.10;;;1.50;;
4812;SDS011;2420;51.202;8.698;2023-07-13T14:56:49;2.67;;;1.40;;
4812;SDS011;2420;51.202;8.698;2023-07-13T14:59:15;3.50;;;1.50;;
4812;SDS011;2420;51.202;8.698;2023-07-13T15:01:43;2.83;;;1.60;;
4812;SDS011;2420;51.202;8.698;2023-07-13T15:04:10;2.33;;;1.45;;
4812;SDS011;2420;51.202;8.698;2023-07-13T15:09:25;3.70;;;1.70;;
4812;SDS011;2420;51.202;8.698;2023-07-13T15:11:54;1.85;;;1.60;;
4812;SDS011;2420;51.202;8.698;2023-07-13T15:14:21;4.65;;;1.80;;
4812;SDS011;2420;51.202;8.698;2023-07-13T15:16:48;1.80;;;1.50;;
4812;SDS011;2420;51.202;8.698;2023-07-13T15:19:16;2.40;;;1.50;;
4812;SDS011;2420;51.202;8.698;2023-07-13T15:21:43;2.67;;;1.58;;
4812;SDS011;2420;51.202;8.698;2023-07-13T15:24:09;3.15;;;1.83;;
4812;SDS011;2420;51.202;8.698;2023-07-13T15:26:35;3.60;;;1.67;;
4812;SDS011;2420;51.202;8.698;2023-07-13T15:29:04;3.33;;;1.70;;
4812;SDS011;2420;51.202;8.698;2023-07-13T15:31:30;2.45;;;1.70;;
4812;SDS011;2420;51.202;8.698;2023-07-13T15:33:59;3.63;;;1.58;;
4812;SDS011;2420;51.202;8.698;2023-07-13T15:36:28;3.17;;;1.45;;
4812;SDS011;2420;51.202;8.698;2023-07-13T15:38:54;2.75;;;1.70;;
4812;SDS011;2420;51.202;8.698;2023-07-13T15:41:24;2.90;;;2.00;;
4812;SDS011;2420;51.202;8.698;2023-07-13T15:43:52;2.45;;;1.60;;
4812;SDS011;2420;51.202;8.698;2023-07-13T15:46:19;3.10;;;1.70;;
4812;SDS011;2420;51.202;8.698;2023-07-13T15:48:47;3.28;;;1.63;;
4812;SDS011;2420;51.202;8.698;2023-07-13T15:53:49;3.40;;;1.90;;
4812;SDS011;2420;51.202;8.698;2023-07-13T15:56:22;2.83;;;1.80;;
4812;SDS011;2420;51.202;8.698;2023-07-13T15:58:49;2.28;;;1.88;;
4812;SDS011;2420;51.202;8.698;2023-07-13T16:01:16;2.58;;;2.00;;